Friday, October 20, 2017, 9:10 PM EDT
Back to Local

KHYA, Hyannis Barnstable Boardmn

Location: West Yarmouth, MA, United States Lat: 41.667
Local Time: 9:10 PM EDT ( 1:10 GMT) Lon: -70.267
Time Zone: US/Eastern Elev: 52 ft

Show me the last for .
Show Decoded

2017-10-20 20:56 METAR KHYA 210056Z 31004KT 10SM CLR 16/05 A3007 RMK AO2 SLP182 T01560050 =
2017-10-20 19:56 METAR KHYA 202356Z 29005KT 10SM CLR 12/07 A3005 RMK AO2 SLP177 T01220072 10206
                 20117 53016 =
2017-10-20 18:56 METAR KHYA 202256Z 28004KT 10SM CLR 12/09 A3003 RMK AO2 SLP169 T01220089 =
2017-10-20 17:56 METAR KHYA 202156Z 00000KT 10SM CLR 15/09 A3001 RMK AO2 SLP164 T01500089 =
2017-10-20 16:56 METAR KHYA 202056Z 00000KT 10SM CLR 19/09 A3000 RMK AO2 SLP161 T01940089 53006 =
2017-10-20 15:56 METAR KHYA 201956Z 01006KT 10SM CLR 20/09 A2999 RMK AO2 SLP155 T02000089 =
2017-10-20 14:56 METAR KHYA 201856Z 02007KT 10SM CLR 20/06 A2998 RMK AO2 SLP153 T02000061 =
2017-10-20 13:56 METAR KHYA 201756Z 32011KT 10SM CLR 20/04 A2998 RMK AO2 SLP154 T02000044 10206
                 20156 56016 =
2017-10-20 12:56 METAR KHYA 201656Z 31008G16KT 10SM CLR 20/08 A3000 RMK AO2 SLP159 T02000078 =
2017-10-20 11:56 METAR KHYA 201556Z 34010G17KT 10SM CLR 19/08 A3002 RMK AO2 SLP165 T01890083 =
2017-10-20 10:56 METAR KHYA 201456Z 33011G19KT 10SM CLR 18/08 A3003 RMK AO2 SLP170 T01830083
                 51008 =
2017-10-20 09:56 METAR KHYA 201356Z 31010G15KT 10SM CLR 18/09 A3003 RMK AO2 SLP169 T01780089 =
2017-10-20 08:56 METAR KHYA 201256Z 31008G15KT 10SM CLR 17/08 A3003 RMK AO2 SLP169 T01720083 =
2017-10-20 07:56 METAR KHYA 201156Z 29006KT 10SM CLR 16/08 A3001 RMK AO2 SLP162 T01560083 10167
                 20144 53010 =
2017-10-20 06:56 METAR KHYA 201056Z 28007KT 10SM CLR 15/09 A2999 RMK AO2 SLP156 T01500089 =
2017-10-20 05:56 METAR KHYA 200956Z 28007KT 10SM CLR 16/09 A2998 RMK AO2 SLP153 T01560094 =
2017-10-20 04:56 METAR KHYA 200856Z AUTO 26007KT 10SM CLR 16/12 A2998 RMK AO2 SLP152 T01560122
                 56007 =
2017-10-20 03:56 METAR KHYA 200756Z AUTO 23006KT 10SM CLR 16/13 A2998 RMK AO2 SLP153 T01560133 =
2017-10-20 02:56 METAR KHYA 200656Z AUTO 23011KT 10SM CLR 16/14 A2998 RMK AO2 SLP152 T01610139 =
2017-10-20 01:56 METAR KHYA 200556Z AUTO 22013KT 10SM CLR 17/14 A3000 RMK AO2 SLP159 T01670144
                 10167 20156 58015 =
2017-10-20 00:56 METAR KHYA 200456Z AUTO 21013KT 10SM CLR 16/14 A3001 RMK AO2 SLP164 T01610139
                 402060078 =
2017-10-19 23:56 METAR KHYA 200356Z AUTO 22014KT 10SM CLR 16/14 A3003 RMK AO2 SLP171 T01610139 =
2017-10-19 22:56 METAR KHYA 200256Z AUTO 22012KT 10SM FEW015 16/13 A3004 RMK AO2 SLP173 T01560133
                 55002 =
2017-10-19 21:56 METAR KHYA 200156Z 23015G22KT 10SM CLR 16/13 A3004 RMK AO2 SLP173 T01610128 =

Support USWX by starting your Amazon purchase here.